createdAt,value
2022-12-15T00:02:19.210Z,-4.70
2022-12-15T00:05:04.461Z,-4.71
2022-12-15T00:07:50.070Z,-4.65
2022-12-15T00:10:36.001Z,-4.70
2022-12-15T00:13:21.856Z,-4.67
2022-12-15T00:16:07.906Z,-4.70
2022-12-15T00:18:54.572Z,-4.73
2022-12-15T00:21:39.656Z,-4.74
2022-12-15T00:24:25.074Z,-4.67
2022-12-15T00:27:10.213Z,-4.51
2022-12-15T00:29:55.447Z,-4.47
2022-12-15T00:32:40.993Z,-4.60
2022-12-15T00:35:27.978Z,-4.76
2022-12-15T00:38:13.727Z,-4.88
2022-12-15T00:40:40.617Z,-4.93
2022-12-15T00:43:12.144Z,-4.88
2022-12-15T00:45:58.020Z,-4.86
2022-12-15T00:48:24.946Z,-4.76
2022-12-15T00:50:53.184Z,-4.70
2022-12-15T00:53:38.924Z,-4.66
2022-12-15T00:56:24.492Z,-4.71
2022-12-15T00:59:09.753Z,-4.77
2022-12-15T01:01:55.029Z,-4.90
2022-12-15T01:04:40.236Z,-4.97
2022-12-15T01:07:27.209Z,-5.03
2022-12-15T01:10:12.541Z,-5.02
2022-12-15T01:12:58.057Z,-5.11
2022-12-15T01:15:43.556Z,-5.26
2022-12-15T01:18:28.722Z,-5.27
2022-12-15T01:20:56.698Z,-5.26
2022-12-15T01:23:25.133Z,-5.20
2022-12-15T01:25:53.378Z,-5.27
2022-12-15T01:28:20.382Z,-5.33
2022-12-15T01:30:47.518Z,-5.37
2022-12-15T01:33:15.471Z,-5.36
2022-12-15T01:35:42.323Z,-5.42
2022-12-15T01:38:09.638Z,-5.48
2022-12-15T01:40:47.078Z,-5.48
2022-12-15T01:43:16.540Z,-5.49
2022-12-15T01:45:50.909Z,-5.52
2022-12-15T01:48:26.777Z,-5.45
2022-12-15T01:51:01.253Z,-5.51
2022-12-15T01:53:29.531Z,-5.57
2022-12-15T01:55:59.014Z,-5.60
2022-12-15T01:58:27.048Z,-5.53
2022-12-15T02:00:53.938Z,-5.60
2022-12-15T02:03:21.260Z,-5.67
2022-12-15T02:05:48.693Z,-5.70
2022-12-15T02:08:15.587Z,-5.65
2022-12-15T02:11:00.540Z,-5.56
2022-12-15T02:13:35.453Z,-5.57
2022-12-15T02:16:13.680Z,-5.54
2022-12-15T02:18:55.189Z,-5.61
2022-12-15T02:21:28.531Z,-5.59
2022-12-15T02:24:40.160Z,-5.58
2022-12-15T02:27:34.467Z,-5.58
2022-12-15T02:30:26.436Z,-5.59
2022-12-15T02:33:08.491Z,-5.53
2022-12-15T02:35:47.831Z,-5.62
2022-12-15T02:38:14.751Z,-5.67
2022-12-15T02:40:41.833Z,-5.66
2022-12-15T02:43:10.200Z,-5.69
2022-12-15T02:45:49.673Z,-5.68
2022-12-15T02:48:26.324Z,-5.66
2022-12-15T02:51:08.590Z,-5.67
2022-12-15T02:54:06.262Z,-5.67
2022-12-15T02:56:41.533Z,-5.53
2022-12-15T02:59:13.671Z,-5.62
2022-12-15T03:01:47.531Z,-5.66
2022-12-15T03:04:17.415Z,-5.65
2022-12-15T03:06:44.369Z,-5.69
2022-12-15T03:09:11.208Z,-5.72
2022-12-15T03:11:38.263Z,-5.68
2022-12-15T03:14:05.066Z,-5.74
2022-12-15T03:16:31.937Z,-5.86
2022-12-15T03:19:00.181Z,-5.78
2022-12-15T03:21:27.667Z,-5.87
2022-12-15T03:23:54.525Z,-5.90
2022-12-15T03:26:21.730Z,-5.94
2022-12-15T03:28:48.513Z,-5.89
2022-12-15T03:31:15.499Z,-5.96
2022-12-15T03:33:42.255Z,-5.90
2022-12-15T03:36:10.755Z,-5.93
2022-12-15T03:38:37.653Z,-5.94
2022-12-15T03:41:04.510Z,-5.92
2022-12-15T03:43:31.577Z,-5.91
2022-12-15T03:45:58.694Z,-5.87
2022-12-15T03:48:25.588Z,-5.91
2022-12-15T03:50:52.378Z,-5.91
2022-12-15T03:53:20.724Z,-5.98
2022-12-15T03:55:47.630Z,-5.93
2022-12-15T03:58:14.455Z,-5.95
2022-12-15T04:00:41.374Z,-5.91
2022-12-15T04:03:09.551Z,-5.94
2022-12-15T04:05:37.911Z,-6.03
2022-12-15T04:08:05.559Z,-6.05
2022-12-15T04:10:35.620Z,-6.13
2022-12-15T04:13:04.350Z,-6.14
2022-12-15T04:15:31.202Z,-6.06
2022-12-15T04:17:58.478Z,-6.05
2022-12-15T04:20:25.333Z,-5.99
2022-12-15T04:22:52.301Z,-5.98
2022-12-15T04:25:40.627Z,-6.02
2022-12-15T04:28:29.163Z,-6.00
2022-12-15T04:31:17.770Z,-6.02
2022-12-15T04:34:06.022Z,-6.03
2022-12-15T04:36:51.926Z,-6.11
2022-12-15T04:39:37.560Z,-6.07
2022-12-15T04:42:23.388Z,-6.10
2022-12-15T04:45:18.612Z,-6.15
2022-12-15T04:48:06.145Z,-6.25
2022-12-15T04:50:51.561Z,-6.22
2022-12-15T04:53:38.251Z,-6.27
2022-12-15T04:56:27.547Z,-6.22
2022-12-15T04:59:12.788Z,-6.18
2022-12-15T05:01:59.820Z,-6.19
2022-12-15T05:04:45.184Z,-6.20
2022-12-15T05:07:30.942Z,-6.23
2022-12-15T05:10:16.306Z,-6.24
2022-12-15T05:13:02.365Z,-6.24
2022-12-15T05:15:48.117Z,-6.24
2022-12-15T05:18:34.829Z,-6.18
2022-12-15T05:21:20.325Z,-6.18
2022-12-15T05:24:05.479Z,-6.23
2022-12-15T05:26:52.990Z,-6.18
2022-12-15T05:29:39.248Z,-6.15
2022-12-15T05:32:06.689Z,-6.14
2022-12-15T05:34:36.516Z,-6.17
2022-12-15T05:37:05.132Z,-6.19
2022-12-15T05:39:32.162Z,-6.11
2022-12-15T05:41:59.054Z,-6.08
2022-12-15T05:44:26.344Z,-6.06
2022-12-15T05:46:53.742Z,-6.09
2022-12-15T05:49:21.056Z,-6.14
2022-12-15T05:51:49.406Z,-6.15
2022-12-15T05:54:18.112Z,-6.26
2022-12-15T05:56:45.349Z,-6.38
2022-12-15T05:59:12.574Z,-6.34
2022-12-15T06:01:39.920Z,-6.24
2022-12-15T06:04:07.550Z,-6.25
2022-12-15T06:06:34.711Z,-6.28
2022-12-15T06:09:03.633Z,-6.21
2022-12-15T06:14:11.045Z,-6.19
2022-12-15T06:16:44.238Z,-6.29
2022-12-15T06:19:17.348Z,-6.29
2022-12-15T06:21:44.260Z,-6.46
2022-12-15T06:24:12.489Z,-6.34
2022-12-15T06:26:40.186Z,-6.38
2022-12-15T07:01:27.917Z,-6.15
2022-12-15T07:03:55.763Z,-6.11
2022-12-15T07:06:23.169Z,-6.21
2022-12-15T07:30:16.120Z,-6.35
2022-12-15T07:32:44.329Z,-6.26
2022-12-15T07:35:17.934Z,-6.25
2022-12-15T07:37:44.747Z,-6.32
2022-12-15T07:40:12.166Z,-6.26
2022-12-15T07:42:39.295Z,-6.34
2022-12-15T07:45:07.552Z,-6.35
2022-12-15T07:50:23.322Z,-6.45
2022-12-15T07:52:51.580Z,-6.25
2022-12-15T07:58:10.161Z,-6.17
2022-12-15T08:03:18.851Z,-6.27
2022-12-15T08:05:47.356Z,-6.28
2022-12-15T08:08:15.600Z,-6.38
2022-12-15T08:10:42.552Z,-6.33
2022-12-15T08:13:09.860Z,-6.25
2022-12-15T08:15:37.237Z,-6.28
2022-12-15T08:18:04.676Z,-6.30
2022-12-15T08:20:31.809Z,-6.25
2022-12-15T08:23:00.121Z,-6.23
2022-12-15T08:25:30.300Z,-6.18
2022-12-15T08:27:57.422Z,-6.05
2022-12-15T08:30:24.452Z,-5.99
2022-12-15T08:32:52.126Z,-6.03
2022-12-15T08:35:39.235Z,-6.07
2022-12-15T08:38:07.517Z,-6.01
2022-12-15T08:40:34.395Z,-5.91
2022-12-15T08:43:01.194Z,-5.80
2022-12-15T08:45:28.003Z,-5.64
2022-12-15T08:47:56.118Z,-5.60
2022-12-15T08:50:22.962Z,-5.50
2022-12-15T08:53:13.764Z,-5.37
2022-12-15T08:55:38.199Z,-5.21
2022-12-15T08:58:05.364Z,-5.14
2022-12-15T09:00:32.227Z,-5.12
2022-12-15T09:03:00.561Z,-5.07
2022-12-15T09:05:27.468Z,-5.08
2022-12-15T09:07:55.601Z,-5.02
2022-12-15T09:10:23.544Z,-4.83
2022-12-15T09:12:51.778Z,-4.83
2022-12-15T09:15:19.396Z,-4.70
2022-12-15T09:17:46.981Z,-4.68
2022-12-15T09:20:17.800Z,-4.64
2022-12-15T09:22:44.902Z,-4.50
2022-12-15T09:25:17.663Z,-4.48
2022-12-15T09:27:44.550Z,-4.41
2022-12-15T09:30:13.700Z,-4.27
2022-12-15T09:32:40.536Z,-4.20
2022-12-15T09:35:08.060Z,-4.19
2022-12-15T09:37:34.915Z,-4.17
2022-12-15T09:40:01.774Z,-4.11
2022-12-15T09:42:30.513Z,-4.12
2022-12-15T09:45:04.562Z,-4.15
2022-12-15T09:47:40.473Z,-4.17
2022-12-15T09:50:11.852Z,-4.14
2022-12-15T09:52:48.045Z,-4.08
2022-12-15T09:55:22.043Z,-4.01
2022-12-15T09:57:54.133Z,-3.96
2022-12-15T10:00:24.486Z,-3.90
2022-12-15T10:03:34.641Z,-3.75
2022-12-15T10:09:00.854Z,-3.42
2022-12-15T10:11:45.067Z,-3.32
2022-12-15T10:14:27.865Z,-3.17
2022-12-15T10:17:02.775Z,-3.03
2022-12-15T10:19:39.488Z,-2.89
2022-12-15T10:22:12.124Z,-2.64
2022-12-15T10:27:44.834Z,-2.44
2022-12-15T10:30:14.056Z,-2.35
2022-12-15T10:32:50.340Z,-2.26
2022-12-15T10:35:23.609Z,-2.21
2022-12-15T10:37:50.505Z,-2.15
2022-12-15T10:40:45.665Z,-1.89
2022-12-15T10:43:25.927Z,-1.83
2022-12-15T10:46:01.973Z,-1.60
2022-12-15T10:48:28.909Z,-1.33
2022-12-15T10:51:15.252Z,-1.21
2022-12-15T10:53:45.071Z,-1.25
2022-12-15T10:56:22.425Z,-1.10
2022-12-15T10:58:53.805Z,-1.09
2022-12-15T11:01:24.887Z,-1.11
2022-12-15T11:03:54.356Z,-0.96
2022-12-15T11:06:25.899Z,-0.86
2022-12-15T11:08:56.319Z,-0.84
2022-12-15T11:11:47.857Z,-0.82
2022-12-15T11:14:20.969Z,-0.78
2022-12-15T11:16:52.071Z,-0.58
2022-12-15T11:19:31.848Z,-0.47
2022-12-15T11:22:05.890Z,-0.42
2022-12-15T11:24:40.481Z,-0.43
2022-12-15T11:27:15.577Z,-0.38
2022-12-15T11:30:01.388Z,-0.20
2022-12-15T11:32:32.124Z,0.62
2022-12-15T11:34:59.668Z,0.74
2022-12-15T11:37:49.423Z,0.47
2022-12-15T11:40:30.906Z,0.31
2022-12-15T11:43:25.371Z,0.27
2022-12-15T11:45:59.307Z,0.28
2022-12-15T11:48:33.982Z,0.26
2022-12-15T11:51:06.234Z,0.19
2022-12-15T11:53:56.107Z,0.23
2022-12-15T11:56:31.111Z,0.26
2022-12-15T11:59:25.025Z,0.36
2022-12-15T12:02:07.613Z,0.62
2022-12-15T12:04:43.188Z,0.60
2022-12-15T12:07:20.020Z,0.59
2022-12-15T12:10:03.098Z,0.63
2022-12-15T12:12:33.662Z,0.63
2022-12-15T12:15:19.704Z,0.67
2022-12-15T12:17:51.639Z,0.71
2022-12-15T12:20:21.938Z,0.79
2022-12-15T12:22:57.670Z,0.83
2022-12-15T12:25:26.880Z,1.02
2022-12-15T12:27:58.832Z,1.16
2022-12-15T12:30:29.321Z,1.22
2022-12-15T12:33:04.074Z,1.29
2022-12-15T12:35:38.100Z,1.21
2022-12-15T12:38:07.178Z,1.20
2022-12-15T12:40:53.895Z,1.17
2022-12-15T12:43:32.110Z,1.17
2022-12-15T12:46:04.121Z,1.22
2022-12-15T12:48:37.652Z,1.26
2022-12-15T12:51:17.861Z,1.36
2022-12-15T12:53:44.911Z,1.32
2022-12-15T12:56:32.999Z,1.39
2022-12-15T12:58:59.869Z,1.56
2022-12-15T13:01:31.032Z,1.60
2022-12-15T13:04:12.397Z,1.65
2022-12-15T13:07:01.144Z,1.73
2022-12-15T13:09:39.904Z,1.73
2022-12-15T13:12:50.921Z,1.75
2022-12-15T13:15:34.249Z,1.86
2022-12-15T13:18:07.177Z,1.93
2022-12-15T13:20:36.423Z,1.92
2022-12-15T13:23:33.368Z,1.91
2022-12-15T13:26:13.334Z,1.94
2022-12-15T13:28:45.951Z,2.04
2022-12-15T13:31:32.550Z,1.96
2022-12-15T13:34:18.700Z,2.00
2022-12-15T13:36:55.398Z,1.95
2022-12-15T13:39:50.695Z,1.97
2022-12-15T13:45:36.393Z,1.96
2022-12-15T13:48:13.559Z,2.11
2022-12-15T13:50:51.334Z,2.11
2022-12-15T13:53:21.905Z,2.12
2022-12-15T13:55:59.259Z,2.02
2022-12-15T13:58:30.285Z,1.99
2022-12-15T14:00:59.104Z,1.95
2022-12-15T14:03:26.357Z,1.85
2022-12-15T14:05:54.666Z,1.75
2022-12-15T14:08:24.481Z,1.66
2022-12-15T14:10:53.325Z,1.63
2022-12-15T14:13:25.043Z,1.57
2022-12-15T14:15:55.303Z,1.45
2022-12-15T14:18:29.771Z,1.29
2022-12-15T14:20:57.753Z,1.32
2022-12-15T14:23:27.721Z,1.22
2022-12-15T14:25:57.094Z,1.23
2022-12-15T14:28:30.556Z,1.16
2022-12-15T14:31:00.178Z,1.09
2022-12-15T14:33:29.933Z,1.04
2022-12-15T14:35:58.771Z,1.05
2022-12-15T14:38:31.710Z,0.97
2022-12-15T14:41:02.469Z,0.88
2022-12-15T14:43:34.037Z,0.88
2022-12-15T14:46:08.403Z,0.76
2022-12-15T14:48:41.342Z,0.70
2022-12-15T14:51:11.617Z,0.60
2022-12-15T14:53:41.929Z,0.48
2022-12-15T14:56:29.651Z,0.42
2022-12-15T14:58:59.869Z,0.55
2022-12-15T15:01:30.036Z,0.42
2022-12-15T15:03:06.436Z,-3.60
2022-12-15T15:03:09.676Z,1.94
2022-12-15T15:03:59.686Z,0.52
2022-12-15T15:06:33.266Z,0.51
2022-12-15T15:09:19.722Z,0.45
2022-12-15T15:11:50.502Z,0.31
2022-12-15T15:14:22.661Z,0.18
2022-12-15T15:17:01.006Z,0.12
2022-12-15T15:19:32.318Z,-0.04
2022-12-15T15:22:00.928Z,-0.19
2022-12-15T15:24:32.740Z,-0.30
2022-12-15T15:27:24.843Z,-0.38
2022-12-15T15:29:52.490Z,-0.44
2022-12-15T15:32:21.951Z,-0.59
2022-12-15T15:34:50.132Z,-0.72
2022-12-15T15:37:20.048Z,-0.80
2022-12-15T15:39:48.656Z,-0.97
2022-12-15T15:42:15.607Z,-1.01
2022-12-15T15:44:42.500Z,-1.16
2022-12-15T15:47:20.867Z,-1.25
2022-12-15T15:49:49.316Z,-1.37
2022-12-15T15:52:17.725Z,-1.49
2022-12-15T15:54:45.787Z,-1.47
2022-12-15T15:57:15.406Z,-1.54
2022-12-15T15:59:42.552Z,-1.65
2022-12-15T16:02:10.606Z,-1.70
2022-12-15T16:04:40.630Z,-1.68
2022-12-15T16:07:15.684Z,-1.75
2022-12-15T16:09:44.074Z,-1.83
2022-12-15T16:12:24.075Z,-1.86
2022-12-15T16:14:50.871Z,-1.96
2022-12-15T16:17:17.844Z,-2.00
2022-12-15T16:19:44.720Z,-2.04
2022-12-15T16:22:15.242Z,-1.99
2022-12-15T16:24:44.003Z,-1.97
2022-12-15T16:27:12.136Z,-1.96
2022-12-15T16:29:39.406Z,-2.02
2022-12-15T16:32:07.304Z,-2.14
2022-12-15T16:34:34.212Z,-2.18
2022-12-15T16:37:10.359Z,-2.26
2022-12-15T16:53:41.347Z,-2.45
2022-12-15T16:56:13.014Z,-2.53
2022-12-15T16:58:39.899Z,-2.57
2022-12-15T17:01:09.042Z,-2.54
2022-12-15T17:03:36.032Z,-2.60
2022-12-15T17:08:49.572Z,-2.74
2022-12-15T17:11:19.160Z,-2.76
2022-12-15T17:13:51.164Z,-2.81
2022-12-15T17:16:58.783Z,-2.81
2022-12-15T17:21:55.886Z,-2.85
2022-12-15T17:27:30.212Z,-2.74
2022-12-15T17:29:59.159Z,-2.69
2022-12-15T17:32:26.824Z,-2.68
2022-12-15T17:34:53.687Z,-2.73
2022-12-15T17:37:20.597Z,-2.78
2022-12-15T17:39:51.265Z,-2.78
2022-12-15T17:42:20.661Z,-2.80
2022-12-15T17:44:49.344Z,-2.76
2022-12-15T17:47:19.142Z,-2.77
2022-12-15T17:49:47.384Z,-2.69
2022-12-15T17:52:26.926Z,-2.67
2022-12-15T17:54:54.391Z,-2.72
2022-12-15T17:57:21.507Z,-2.79
2022-12-15T17:59:50.111Z,-2.79
2022-12-15T18:02:17.466Z,-2.82
2022-12-15T18:04:44.901Z,-2.85
2022-12-15T18:07:18.338Z,-2.86
2022-12-15T18:09:45.579Z,-2.80
2022-12-15T18:12:20.555Z,-2.78
2022-12-15T18:14:48.999Z,-2.78
2022-12-15T18:17:16.269Z,-2.74
2022-12-15T18:19:43.031Z,-2.79
2022-12-15T18:22:13.002Z,-2.81
2022-12-15T18:24:40.276Z,-2.84
2022-12-15T18:27:19.355Z,-2.96
2022-12-15T18:29:46.309Z,-2.91
2022-12-15T18:32:14.996Z,-2.77
2022-12-15T18:34:42.081Z,-2.67
2022-12-15T18:37:14.878Z,-2.60
2022-12-15T18:39:41.843Z,-2.47
2022-12-15T18:42:14.270Z,-2.36
2022-12-15T18:44:45.145Z,-2.21
2022-12-15T18:47:16.734Z,-2.10
2022-12-15T18:49:43.888Z,-2.03
2022-12-15T18:52:16.803Z,-1.85
2022-12-15T18:54:44.289Z,-1.73
2022-12-15T18:57:26.140Z,-1.70
2022-12-15T18:59:56.474Z,-1.75
2022-12-15T19:02:25.091Z,-1.87
2022-12-15T19:04:51.994Z,-2.01
2022-12-15T19:07:19.046Z,-2.05
2022-12-15T19:09:46.062Z,-2.14
2022-12-15T19:12:17.818Z,-2.24
2022-12-15T19:14:45.281Z,-2.34
2022-12-15T19:17:32.511Z,-2.34
2022-12-15T19:20:19.300Z,-2.39
2022-12-15T19:22:47.558Z,-2.38
2022-12-15T19:25:24.999Z,-1.99
2022-12-15T19:27:58.537Z,-2.05
2022-12-15T19:30:27.520Z,-2.15
2022-12-15T19:32:54.600Z,-2.31
2022-12-15T19:35:23.169Z,-2.44
2022-12-15T19:37:50.514Z,-2.43
2022-12-15T19:40:22.219Z,-2.41
2022-12-15T19:42:49.961Z,-2.41
2022-12-15T19:45:19.766Z,-2.54
2022-12-15T19:47:46.950Z,-2.58
2022-12-15T19:50:15.769Z,-2.61
2022-12-15T19:52:48.502Z,-2.49
2022-12-15T19:55:17.256Z,-2.55
2022-12-15T19:57:44.556Z,-2.58
2022-12-15T20:00:16.357Z,-2.57
2022-12-15T20:02:44.671Z,-2.48
2022-12-15T20:05:11.696Z,-2.34
2022-12-15T20:07:38.607Z,-2.22
2022-12-15T20:10:22.032Z,-2.10
2022-12-15T20:12:51.469Z,-1.87
2022-12-15T20:15:21.586Z,-1.71
2022-12-15T20:17:50.586Z,-1.67
2022-12-15T20:20:19.150Z,-1.65
2022-12-15T20:22:50.787Z,-1.54
2022-12-15T20:25:22.669Z,-1.51
2022-12-15T20:27:49.651Z,-1.48
2022-12-15T20:30:20.776Z,-1.45
2022-12-15T20:32:48.307Z,-1.38
2022-12-15T20:35:16.748Z,-1.38
2022-12-15T20:37:44.145Z,-1.33
2022-12-15T20:40:21.766Z,-1.24
2022-12-15T20:42:49.475Z,-1.21
2022-12-15T20:45:18.629Z,-1.13
2022-12-15T20:47:47.686Z,-1.04
2022-12-15T20:50:37.389Z,-0.97
2022-12-15T20:53:06.089Z,-0.92
2022-12-15T20:55:34.462Z,-0.91
2022-12-15T20:58:01.315Z,-1.06
2022-12-15T21:00:28.298Z,-1.11
2022-12-15T21:02:55.510Z,-1.28
2022-12-15T21:05:25.706Z,-1.38
2022-12-15T21:07:52.879Z,-1.38
2022-12-15T21:10:20.897Z,-1.52
2022-12-15T21:12:50.579Z,-1.56
2022-12-15T21:15:19.405Z,-1.62
2022-12-15T21:17:46.979Z,-1.62
2022-12-15T21:20:14.278Z,-1.53
2022-12-15T21:22:41.499Z,-1.50
2022-12-15T21:25:18.699Z,-1.37
2022-12-15T21:27:45.515Z,-1.28
2022-12-15T21:30:22.781Z,-1.05
2022-12-15T21:32:50.543Z,-0.86
2022-12-15T21:35:19.140Z,-0.87
2022-12-15T21:37:49.634Z,-0.89
2022-12-15T21:40:20.320Z,-0.86
2022-12-15T21:42:48.999Z,-0.75
2022-12-15T21:45:19.613Z,-0.67
2022-12-15T21:48:05.702Z,-0.56
2022-12-15T21:50:33.719Z,-0.81
2022-12-15T21:53:01.345Z,-0.98
2022-12-15T21:55:29.702Z,-1.17
2022-12-15T21:57:57.495Z,-1.24
2022-12-15T22:00:26.487Z,-1.23
2022-12-15T22:02:53.866Z,-1.29
2022-12-15T22:05:24.010Z,-1.45
2022-12-15T22:07:51.176Z,-1.62
2022-12-15T22:10:19.279Z,-1.70
2022-12-15T22:12:54.636Z,-1.67
2022-12-15T22:15:28.936Z,-1.77
2022-12-15T22:17:56.278Z,-1.86
2022-12-15T22:20:24.602Z,-1.92
2022-12-15T22:22:51.582Z,-1.90
2022-12-15T22:25:20.587Z,-1.88
2022-12-15T22:27:47.904Z,-1.87
2022-12-15T22:30:16.761Z,-1.93
2022-12-15T22:32:45.855Z,-2.05
2022-12-15T22:35:15.523Z,-2.13
2022-12-15T22:37:42.752Z,-2.23
2022-12-15T22:40:10.804Z,-2.19
2022-12-15T22:42:39.965Z,-2.24
2022-12-15T22:45:08.198Z,-2.25
2022-12-15T22:47:37.539Z,-2.16
2022-12-15T22:50:07.473Z,-2.16
2022-12-15T22:52:34.332Z,-2.02
2022-12-15T22:55:01.204Z,-1.92
2022-12-15T22:57:29.535Z,-1.92
2022-12-15T23:00:02.951Z,-1.86
2022-12-15T23:02:33.551Z,-1.93
2022-12-15T23:05:00.779Z,-1.91
2022-12-15T23:07:29.115Z,-1.84
2022-12-15T23:10:14.837Z,-1.78
2022-12-15T23:12:41.634Z,-1.98
2022-12-15T23:15:27.985Z,-2.16
2022-12-15T23:17:55.035Z,-2.22
2022-12-15T23:20:21.940Z,-2.16
2022-12-15T23:22:50.108Z,-2.21
2022-12-15T23:25:16.916Z,-2.26
2022-12-15T23:27:43.689Z,-2.25
2022-12-15T23:30:12.788Z,-2.26
2022-12-15T23:32:39.577Z,-2.27
2022-12-15T23:35:07.425Z,-2.33
2022-12-15T23:37:35.154Z,-2.42
2022-12-15T23:40:03.918Z,-2.55
2022-12-15T23:42:30.738Z,-2.66
2022-12-15T23:44:57.641Z,-2.65
2022-12-15T23:47:24.465Z,-2.75
2022-12-15T23:49:51.318Z,-2.68
2022-12-15T23:52:19.799Z,-2.81
2022-12-15T23:54:46.714Z,-2.81
2022-12-15T23:57:14.863Z,-2.84
2022-12-15T23:59:41.789Z,-2.87
